• Join FlightAware (Why Join?)
  • Login
  • US Flag 
04:07PM EDT


 

Airport Tracker/Info


-or-


 

Live Flight TrackerFlight Track Log ✈ UPS1121 ✈ 17-Jun-2013 ✈ KBDL - KPHL

Flight Track Log - Related Links

Times and Time Zones

All times are in EDT time to prevent confusion due to time zone crossing. See the UPS1121 flight status page for this flight to view local times or setup timezone preferences in your user account.

Time Position Orientation Groundspeed Altitude Reporting Facility
EDT Latitude Longitude Course Direction KTS MPH feet Rate Location/Type
09:59PM 41.9417 -72.6997 42° Northeast 140 161 1,000  Level Boston Center
10:01PM 41.9792 -72.6550 42° Northeast 224 258 4,400 2,580 Climbing Boston Center
10:06PM 41.6390 -72.1990 42° Northeast 397 457 17,900 2,400 Climbing FlightAware
10:07PM 41.5700 -72.2030 182° South 381 438 19,200 1,260 Climbing FlightAware
10:07PM 41.5170 -72.2350 204° Southwest 379 436 19,500 480 Climbing FlightAware
10:08PM 41.4300 -72.3290 219° Southwest 374 430 20,000 240 Climbing FlightAware
10:09PM 41.3720 -72.3830 215° Southwest 374 430 20,000  Level FlightAware
10:10PM 41.3180 -72.4250 210° Southwest 375 432 20,000  Level FlightAware
10:10PM 41.2710 -72.4660 213° Southwest 375 432 20,000  Level FlightAware
10:11PM 41.2140 -72.5180 214° Southwest 375 432 20,000  Level FlightAware
10:12PM 41.1210 -72.5830 208° Southwest 373 429 20,000  Level FlightAware
10:12PM 41.0460 -72.6420 211° Southwest 371 427 20,000  Level FlightAware
10:13PM 40.9910 -72.6880 212° Southwest 387 445 20,000  Level FlightAware
10:14PM 40.9230 -72.7420 211° Southwest 376 433 20,000  Level FlightAware
10:14PM 40.8670 -72.7860 211° Southwest 378 435 20,000  Level FlightAware
10:15PM 40.7920 -72.8460 211° Southwest 380 437 20,000  Level FlightAware
10:15PM 40.7664 -72.8663 211° Southwest 380 437 20,000  Level FlightAware ADS-B
10:16PM 40.7203 -72.9027 211° Southwest 385 443 20,000  Level FlightAware ADS-B
10:16PM 40.6744 -72.9390 211° Southwest 386 444 20,000  Level FlightAware ADS-B
10:17PM 40.6243 -72.9786 211° Southwest 386 444 20,000  Level FlightAware ADS-B
10:18PM 40.5713 -73.0204 211° Southwest 387 445 20,000  Level FlightAware ADS-B
10:18PM 40.5188 -73.0619 211° Southwest 388 447 20,000  Level FlightAware ADS-B
10:19PM 40.4711 -73.0997 211° Southwest 388 447 20,000  Level FlightAware ADS-B
10:19PM 40.4140 -73.1445 211° Southwest 387 445 20,000  Level FlightAware ADS-B
10:20PM 40.3693 -73.1796 211° Southwest 388 447 20,000  Level FlightAware ADS-B
10:20PM 40.3229 -73.2161 211° Southwest 387 445 20,000  Level FlightAware ADS-B
10:21PM 40.2728 -73.2552 211° Southwest 385 443 20,000  Level FlightAware ADS-B
10:21PM 40.2261 -73.2916 211° Southwest 385 443 20,000  Level FlightAware ADS-B
10:22PM 40.1796 -73.3278 211° Southwest 384 442 20,000  Level FlightAware ADS-B
10:22PM 40.1296 -73.3666 211° Southwest 382 440 20,000  Level FlightAware ADS-B
10:23PM 40.0809 -73.4044 211° Southwest 381 438 20,000  Level FlightAware ADS-B
10:24PM 40.0144 -73.4559 211° Southwest 381 438 20,000  Level FlightAware ADS-B
10:24PM 39.9684 -73.4916 211° Southwest 380 437 20,000  Level FlightAware ADS-B
10:25PM 39.9246 -73.5259 211° Southwest 378 435 20,000  Level FlightAware ADS-B
10:25PM 39.9130 -73.5368 216° Southwest 377 434 20,000  Level FlightAware ADS-B
10:25PM 39.8946 -73.5580 221° Southwest 375 432 20,000  Level FlightAware ADS-B
10:26PM 39.8570 -73.6145 229° Southwest 374 430 20,000  Level FlightAware ADS-B
10:26PM 39.8238 -73.6680 231° Southwest 375 432 20,000  Level FlightAware ADS-B
10:27PM 39.7906 -73.7208 231° Southwest 374 430 20,000  Level FlightAware ADS-B
10:27PM 39.7518 -73.7823 231° Southwest 374 430 20,000  Level FlightAware ADS-B
10:28PM 39.7178 -73.8359 230° Southwest 370 426 20,000 -420 Level FlightAware ADS-B
10:28PM 39.6860 -73.8861 231° Southwest 351 404 19,600 -1,500 Descending FlightAware ADS-B
10:29PM 39.6532 -73.9379 231° Southwest 344 396 18,500 -2,100 Descending FlightAware ADS-B
10:29PM 39.6218 -73.9874 231° Southwest 339 390 17,400 -2,160 Descending FlightAware ADS-B
10:30PM 39.5917 -74.0348 231° Southwest 334 384 16,300 -2,100 Descending FlightAware ADS-B
10:30PM 39.5617 -74.0818 230° Southwest 333 383 15,300 -2,040 Descending FlightAware ADS-B
10:31PM 39.5414 -74.1141 231° Southwest 329 379 14,600 -2,160 Descending FlightAware ADS-B
10:31PM 39.5338 -74.1309 240° Southwest 326 375 14,200 -1,620 Descending FlightAware ADS-B
10:31PM 39.5310 -74.1393 247° West 325 374 14,200 -720 Level FlightAware ADS-B
10:31PM 39.5265 -74.1638 257° West 324 373 14,000 -300 Descending FlightAware ADS-B
10:32PM 39.5262 -74.2302 270° West 327 376 14,000 -120 Level FlightAware ADS-B
10:32PM 39.5274 -74.2918 271° West 333 383 13,900 -840 Descending FlightAware ADS-B
10:33PM 39.5286 -74.3499 272° West 333 383 13,200 -1,740 Descending FlightAware ADS-B
10:33PM 39.5296 -74.4095 271° West 326 375 12,200 -1,680 Descending FlightAware ADS-B
10:34PM 39.5306 -74.4687 271° West 313 360 11,500 -1,320 Descending FlightAware ADS-B
10:34PM 39.5314 -74.5233 271° West 292 336 10,900 -1,260 Descending FlightAware ADS-B
10:35PM 39.5320 -74.5788 271° West 276 318 10,200 -1,500 Descending FlightAware ADS-B
10:35PM 39.5324 -74.6068 271° West 273 314 9,700 -1,680 Descending FlightAware ADS-B
10:35PM 39.5330 -74.6332 272° West 272 313 9,300 -1,380 Descending FlightAware ADS-B
10:35PM 39.5333 -74.6584 271° West 269 310 9,000 -660 Descending FlightAware ADS-B
10:36PM 39.5337 -74.6805 271° West 264 304 9,000  Level FlightAware ADS-B
10:36PM 39.5340 -74.7380 270° West 265 305 9,000  Level FlightAware
10:37PM 39.5390 -74.7890 277° West 267 307 9,000  Level FlightAware
10:37PM 39.5460 -74.8030 303° West 274 315 9,000  Level FlightAware
10:37PM 39.5580 -74.8210 311° West 273 314 9,000  Level FlightAware
10:38PM 39.5830 -74.8580 311° West 272 313 9,000 -420 Level FlightAware
10:38PM 39.6080 -74.8960 311° West 266 306 8,600 -900 Descending FlightAware
10:38PM 39.6160 -74.9070 313° West 267 307 8,400 -1,440 Descending FlightAware
10:39PM 39.6530 -74.9660 309° West 270 311 7,300 -1,560 Descending FlightAware
10:40PM 39.6770 -75.0040 309° West 273 314 6,500 -1,560 Descending FlightAware
10:40PM 39.7090 -75.0250 333° Northwest 264 304 5,800 -1,740 Descending FlightAware
10:41PM 39.7390 -75.0270 357° North 247 284 5,000 -1,860 Descending FlightAware
10:41PM 39.7729 -75.0191 10° North 252 290 4,200 -1,680 Descending FlightAware ADS-B
10:41PM 39.7902 -75.0149 11° North 248 285 3,800 -1,620 Descending FlightAware ADS-B
10:42PM 39.8000 -75.0038 41° Northeast 243 280 3,400 -1,380 Descending FlightAware ADS-B
10:42PM 39.8243 -75.0064 355° North 235 270 3,100 -840 Descending FlightAware ADS-B
10:42PM 39.8303 -75.0050 10° North 231 266 3,100  Level FlightAware ADS-B
10:42PM 39.8335 -75.0046 North 229 264 3,100  Level FlightAware ADS-B
10:42PM 39.8409 -75.0047 359° North 224 258 3,100 -300 Level FlightAware ADS-B
10:42PM 39.8547 -75.0069 353° North 212 244 3,000 -240 Descending FlightAware ADS-B
10:43PM 39.8687 -75.0098 351° North 201 231 3,000  Level FlightAware ADS-B
10:43PM 39.8825 -75.0126 351° North 181 208 3,000  Level FlightAware ADS-B
10:43PM 39.8904 -75.0142 351° North 175 201 3,000 -420 Level FlightAware ADS-B
10:43PM 39.8949 -75.0159 344° North 173 199 2,900 -1,200 Descending FlightAware ADS-B
10:43PM 39.8983 -75.0181 334° Northwest 170 196 2,800 -780 Descending FlightAware ADS-B
10:43PM 39.9007 -75.0202 326° Northwest 169 194 2,800 -540 Level FlightAware ADS-B
10:43PM 39.9052 -75.0252 320° Northwest 168 193 2,700 -780 Descending FlightAware ADS-B